createdAt,value
2016-08-12T00:00:23.321Z,0
2016-08-12T00:00:47.499Z,0
2016-08-12T00:01:11.676Z,0
2016-08-12T00:01:35.802Z,0
2016-08-12T00:01:59.977Z,0
2016-08-12T00:02:24.117Z,0
2016-08-12T00:02:48.232Z,0
2016-08-12T00:03:12.428Z,0
2016-08-12T00:03:36.540Z,0
2016-08-12T00:04:00.674Z,0
2016-08-12T00:04:24.841Z,0
2016-08-12T00:04:48.954Z,0
2016-08-12T00:05:13.099Z,0
2016-08-12T00:05:37.277Z,0
2016-08-12T00:06:01.429Z,0
2016-08-12T00:06:25.571Z,0
2016-08-12T00:06:49.679Z,0
2016-08-12T00:07:13.819Z,0
2016-08-12T00:07:37.962Z,0
2016-08-12T00:08:02.126Z,0
2016-08-12T00:08:26.242Z,0
2016-08-12T00:08:50.591Z,0
2016-08-12T00:09:14.707Z,0
2016-08-12T00:09:38.834Z,0
2016-08-12T00:10:02.929Z,0
2016-08-12T00:10:27.048Z,0
2016-08-12T00:10:51.180Z,0
2016-08-12T00:11:15.339Z,0
2016-08-12T00:11:39.455Z,0
2016-08-12T00:12:03.610Z,0
2016-08-12T00:12:27.743Z,0
2016-08-12T00:12:51.853Z,0
2016-08-12T00:13:15.957Z,0
2016-08-12T00:13:40.087Z,0
2016-08-12T00:14:04.213Z,0
2016-08-12T00:14:28.369Z,0
2016-08-12T00:14:52.529Z,0
2016-08-12T00:15:16.652Z,0
2016-08-12T00:15:40.814Z,0
2016-08-12T00:16:04.935Z,0
2016-08-12T00:16:29.066Z,0
2016-08-12T00:16:53.182Z,0
2016-08-12T00:17:17.364Z,0
2016-08-12T00:17:41.506Z,0
2016-08-12T00:18:05.728Z,0
2016-08-12T00:18:29.870Z,0
2016-08-12T00:18:54.020Z,0
2016-08-12T00:19:18.161Z,0
2016-08-12T00:19:42.262Z,0
2016-08-12T00:20:06.378Z,0
2016-08-12T00:20:30.533Z,0
2016-08-12T00:20:54.739Z,0
2016-08-12T00:21:18.925Z,0
2016-08-12T00:21:43.031Z,0
2016-08-12T00:22:07.213Z,0
2016-08-12T00:22:31.317Z,0
2016-08-12T00:22:55.451Z,0
2016-08-12T00:23:19.567Z,0
2016-08-12T00:23:43.677Z,0
2016-08-12T00:24:07.795Z,0
2016-08-12T00:24:31.908Z,0
2016-08-12T00:24:56.011Z,0
2016-08-12T00:25:20.145Z,0
2016-08-12T00:25:44.249Z,0
2016-08-12T00:26:08.418Z,0
2016-08-12T00:26:32.542Z,0
2016-08-12T00:26:56.662Z,0
2016-08-12T00:27:20.772Z,0
2016-08-12T00:27:44.897Z,0
2016-08-12T00:28:09.059Z,0
2016-08-12T00:28:33.190Z,0
2016-08-12T00:28:57.311Z,0
2016-08-12T00:29:21.430Z,0
2016-08-12T00:29:45.603Z,0
2016-08-12T00:30:09.741Z,0
2016-08-12T00:30:33.900Z,0
2016-08-12T00:30:58.023Z,0
2016-08-12T00:31:22.150Z,0
2016-08-12T00:31:46.251Z,0
2016-08-12T00:32:10.394Z,0
2016-08-12T00:32:34.504Z,0
2016-08-12T00:32:58.619Z,0
2016-08-12T00:33:22.737Z,0
2016-08-12T00:33:46.883Z,0
2016-08-12T00:34:10.987Z,0
2016-08-12T00:34:35.134Z,0
2016-08-12T00:34:59.246Z,0
2016-08-12T00:35:23.372Z,0
2016-08-12T00:35:47.478Z,0
2016-08-12T00:36:11.616Z,0
2016-08-12T00:36:35.741Z,0
2016-08-12T00:36:59.857Z,0
2016-08-12T00:37:23.983Z,0
2016-08-12T00:37:48.103Z,0
2016-08-12T00:38:12.210Z,0
2016-08-12T00:38:36.341Z,0
2016-08-12T00:39:00.452Z,0
2016-08-12T00:39:24.574Z,0
2016-08-12T00:39:48.694Z,0
2016-08-12T00:40:12.816Z,0
2016-08-12T00:40:36.925Z,0
2016-08-12T00:41:01.030Z,0
2016-08-12T00:41:25.164Z,0
2016-08-12T00:41:49.285Z,0
2016-08-12T00:42:13.424Z,0
2016-08-12T00:42:37.582Z,0
2016-08-12T00:43:01.697Z,0
2016-08-12T00:43:25.809Z,0
2016-08-12T00:43:49.919Z,0
2016-08-12T00:44:14.041Z,0
2016-08-12T00:44:38.160Z,0
2016-08-12T00:45:02.313Z,0
2016-08-12T00:45:26.429Z,0
2016-08-12T00:45:50.550Z,0
2016-08-12T00:46:14.680Z,0
2016-08-12T00:46:38.835Z,0
2016-08-12T00:47:02.966Z,0
2016-08-12T00:47:27.090Z,0
2016-08-12T00:47:51.201Z,0
2016-08-12T00:48:15.320Z,0
2016-08-12T00:48:39.449Z,0
2016-08-12T00:49:03.607Z,0
2016-08-12T00:49:27.770Z,0
2016-08-12T00:49:51.885Z,0
2016-08-12T00:50:16.022Z,0
2016-08-12T00:50:40.131Z,0
2016-08-12T00:51:04.229Z,0
2016-08-12T00:51:28.377Z,0
2016-08-12T00:51:52.503Z,0
2016-08-12T00:52:16.623Z,0
2016-08-12T00:52:40.763Z,0
2016-08-12T00:53:04.865Z,0
2016-08-12T00:53:28.965Z,0
2016-08-12T00:53:53.121Z,0
2016-08-12T00:54:17.234Z,0
2016-08-12T00:54:41.350Z,0
2016-08-12T00:55:05.455Z,0
2016-08-12T00:55:29.598Z,0
2016-08-12T00:55:53.702Z,0
2016-08-12T00:56:17.859Z,0
2016-08-12T00:56:41.986Z,0
2016-08-12T00:57:06.112Z,0
2016-08-12T00:57:30.218Z,0
2016-08-12T00:57:54.306Z,0
2016-08-12T00:58:18.412Z,0
2016-08-12T00:58:42.529Z,0
2016-08-12T00:59:06.651Z,0
2016-08-12T00:59:30.770Z,0
2016-08-12T00:59:54.888Z,0
2016-08-12T01:00:18.977Z,0
2016-08-12T01:00:43.106Z,0
2016-08-12T01:01:07.213Z,0
2016-08-12T01:01:31.314Z,0
2016-08-12T01:01:55.453Z,0
2016-08-12T01:02:19.568Z,0
2016-08-12T01:02:43.689Z,0
2016-08-12T01:03:07.808Z,0
2016-08-12T01:03:31.947Z,0
2016-08-12T01:03:56.134Z,0
2016-08-12T01:04:20.304Z,0
2016-08-12T01:04:44.430Z,0
2016-08-12T01:05:08.589Z,0
2016-08-12T01:05:32.735Z,0
2016-08-12T01:05:56.892Z,0
2016-08-12T01:06:21.021Z,0
2016-08-12T01:06:45.145Z,0
2016-08-12T01:07:09.297Z,0
2016-08-12T01:07:33.386Z,0
2016-08-12T01:07:57.551Z,0
2016-08-12T01:08:21.675Z,0
2016-08-12T01:08:45.787Z,0
2016-08-12T01:09:09.910Z,0
2016-08-12T01:09:34.072Z,0
2016-08-12T01:09:58.225Z,0
2016-08-12T01:10:22.334Z,0
2016-08-12T01:10:46.475Z,0
2016-08-12T01:11:10.657Z,0
2016-08-12T01:11:34.793Z,0
2016-08-12T01:11:58.934Z,0
2016-08-12T01:12:23.052Z,0
2016-08-12T01:12:47.209Z,0
2016-08-12T01:13:11.335Z,0
2016-08-12T01:13:35.475Z,0
2016-08-12T01:13:59.641Z,0
2016-08-12T01:14:23.756Z,0
2016-08-12T01:14:47.921Z,0
2016-08-12T01:15:12.131Z,0
2016-08-12T01:15:36.253Z,0
2016-08-12T01:16:00.385Z,0
2016-08-12T01:16:24.494Z,0
2016-08-12T01:16:48.653Z,0
2016-08-12T01:17:12.751Z,0
2016-08-12T01:17:36.892Z,0
2016-08-12T01:18:00.991Z,0
2016-08-12T01:18:25.125Z,0
2016-08-12T01:18:49.229Z,0
2016-08-12T01:19:13.341Z,0
2016-08-12T01:19:37.521Z,0
2016-08-12T01:20:01.628Z,0
2016-08-12T01:20:25.741Z,0
2016-08-12T01:20:49.832Z,0
2016-08-12T01:21:13.944Z,0
2016-08-12T01:21:38.074Z,0
2016-08-12T01:22:02.208Z,0
2016-08-12T01:22:26.318Z,0
2016-08-12T01:22:50.453Z,0
2016-08-12T01:23:14.644Z,0
2016-08-12T01:23:38.779Z,0
2016-08-12T01:24:02.925Z,0
2016-08-12T01:24:27.030Z,0
2016-08-12T01:24:51.123Z,0
2016-08-12T01:25:15.259Z,0
2016-08-12T01:25:39.383Z,0
2016-08-12T01:26:03.585Z,0
2016-08-12T01:26:27.726Z,0
2016-08-12T01:26:51.836Z,0
2016-08-12T01:27:15.930Z,0
2016-08-12T01:27:40.069Z,0
2016-08-12T01:28:04.231Z,0
2016-08-12T01:28:28.373Z,0
2016-08-12T01:28:52.460Z,0
2016-08-12T01:29:16.652Z,0
2016-08-12T01:29:40.785Z,0
2016-08-12T01:30:04.949Z,0
2016-08-12T01:30:29.078Z,0
2016-08-12T01:30:53.199Z,0
2016-08-12T01:31:17.380Z,0
2016-08-12T01:31:41.508Z,0
2016-08-12T01:32:05.645Z,0
2016-08-12T01:32:29.740Z,0
2016-08-12T01:32:53.915Z,0
2016-08-12T01:33:18.027Z,0
2016-08-12T01:33:42.155Z,0
2016-08-12T01:34:06.257Z,0
2016-08-12T01:34:30.393Z,0
2016-08-12T01:34:54.561Z,0
2016-08-12T01:35:18.686Z,0
2016-08-12T01:35:42.870Z,0
2016-08-12T01:36:07.012Z,0
2016-08-12T01:36:31.136Z,0
2016-08-12T01:36:55.272Z,0
2016-08-12T01:37:19.380Z,0
2016-08-12T01:37:43.583Z,0
2016-08-12T01:38:07.685Z,0
2016-08-12T01:38:31.795Z,0
2016-08-12T01:38:55.905Z,0
2016-08-12T01:39:20.005Z,0
2016-08-12T01:39:44.131Z,0
2016-08-12T01:40:08.236Z,0
2016-08-12T01:40:32.376Z,0
2016-08-12T01:40:56.532Z,0
2016-08-12T01:41:20.650Z,0
2016-08-12T01:41:44.778Z,0
2016-08-12T01:42:08.885Z,0
2016-08-12T01:42:32.990Z,0
2016-08-12T01:42:57.112Z,0
2016-08-12T01:43:21.210Z,0
2016-08-12T01:43:45.342Z,0
2016-08-12T01:44:09.488Z,0
2016-08-12T01:44:33.619Z,0
2016-08-12T01:44:57.764Z,0
2016-08-12T01:45:21.883Z,0
2016-08-12T01:45:45.995Z,0
2016-08-12T01:46:10.183Z,0
2016-08-12T01:46:34.290Z,0
2016-08-12T01:46:58.391Z,0
2016-08-12T01:47:22.510Z,0
2016-08-12T01:47:46.673Z,0
2016-08-12T01:48:10.825Z,0
2016-08-12T01:48:34.978Z,0
2016-08-12T01:48:59.097Z,0
2016-08-12T01:49:23.245Z,0
2016-08-12T01:49:47.453Z,0
2016-08-12T01:50:11.604Z,0
2016-08-12T01:50:35.763Z,0
2016-08-12T01:50:59.921Z,0
2016-08-12T01:51:24.035Z,0
2016-08-12T01:51:48.223Z,0
2016-08-12T01:52:12.371Z,0
2016-08-12T01:52:36.539Z,0
2016-08-12T01:53:00.663Z,0
2016-08-12T01:53:24.798Z,0
2016-08-12T01:53:48.903Z,0
2016-08-12T01:54:13.004Z,0
2016-08-12T01:54:37.130Z,0
2016-08-12T01:55:01.266Z,0
2016-08-12T01:55:25.389Z,0
2016-08-12T01:55:49.489Z,0
2016-08-12T01:56:13.590Z,0
2016-08-12T01:56:37.723Z,0
2016-08-12T01:57:01.831Z,0
2016-08-12T01:57:25.955Z,0
2016-08-12T01:57:50.060Z,0
2016-08-12T01:58:14.163Z,0
2016-08-12T01:58:38.271Z,0
2016-08-12T01:59:02.373Z,0
2016-08-12T01:59:26.478Z,0
2016-08-12T01:59:50.576Z,0
2016-08-12T02:00:14.718Z,0
2016-08-12T02:00:38.852Z,0
2016-08-12T02:01:02.971Z,0
2016-08-12T02:01:27.073Z,0
2016-08-12T02:01:51.212Z,0
2016-08-12T02:02:15.376Z,0
2016-08-12T02:02:39.523Z,0
2016-08-12T02:03:03.648Z,0
2016-08-12T02:03:27.756Z,0
2016-08-12T02:03:51.899Z,0
2016-08-12T02:04:16.036Z,0
2016-08-12T02:04:40.158Z,0
2016-08-12T02:05:04.283Z,0
2016-08-12T02:05:28.417Z,0
2016-08-12T02:05:52.527Z,0
2016-08-12T02:06:16.655Z,0
2016-08-12T02:06:40.779Z,0
2016-08-12T02:07:04.930Z,0
2016-08-12T02:07:29.058Z,0
2016-08-12T02:07:53.219Z,0
2016-08-12T02:08:17.331Z,0
2016-08-12T02:08:41.488Z,0
2016-08-12T02:09:05.611Z,0
2016-08-12T02:09:29.741Z,0
2016-08-12T02:09:53.886Z,0
2016-08-12T02:10:18.048Z,0
2016-08-12T02:10:42.228Z,0
2016-08-12T02:11:06.330Z,0
2016-08-12T02:11:30.440Z,0
2016-08-12T02:11:54.582Z,0
2016-08-12T02:12:18.722Z,0
2016-08-12T02:12:42.821Z,0
2016-08-12T02:13:06.954Z,0
2016-08-12T02:13:31.166Z,0
2016-08-12T02:13:55.306Z,0
2016-08-12T02:14:19.425Z,0
2016-08-12T02:14:43.543Z,0
2016-08-12T02:15:07.646Z,0
2016-08-12T02:15:31.757Z,0
2016-08-12T02:15:55.880Z,0
2016-08-12T02:16:19.987Z,0
2016-08-12T02:16:44.116Z,0
2016-08-12T02:17:08.255Z,0
2016-08-12T02:17:32.391Z,0
2016-08-12T02:17:56.533Z,0
2016-08-12T02:18:20.659Z,0
2016-08-12T02:18:44.756Z,0
2016-08-12T02:19:08.881Z,0
2016-08-12T02:19:33.044Z,0
2016-08-12T02:19:57.147Z,0
2016-08-12T02:20:21.280Z,0
2016-08-12T02:20:45.427Z,0
2016-08-12T02:21:09.547Z,0
2016-08-12T02:21:33.645Z,0
2016-08-12T02:21:57.745Z,0
2016-08-12T02:22:21.834Z,0
2016-08-12T02:22:45.957Z,0
2016-08-12T02:23:10.055Z,0
2016-08-12T02:23:34.175Z,0
2016-08-12T02:23:58.302Z,0
2016-08-12T02:24:22.448Z,0
2016-08-12T02:24:46.554Z,0
2016-08-12T02:25:10.693Z,0
2016-08-12T02:25:34.852Z,0
2016-08-12T02:25:58.996Z,0
2016-08-12T02:26:23.200Z,0
2016-08-12T02:26:47.330Z,0
2016-08-12T02:27:11.476Z,0
2016-08-12T02:27:35.689Z,0
2016-08-12T02:27:59.806Z,0
2016-08-12T02:28:23.921Z,0
2016-08-12T02:28:48.082Z,0
2016-08-12T02:29:12.198Z,0
2016-08-12T02:29:36.358Z,0
2016-08-12T02:30:00.497Z,0
2016-08-12T02:30:24.632Z,0
2016-08-12T02:30:48.802Z,0
2016-08-12T02:31:12.930Z,0
2016-08-12T02:31:37.024Z,0
2016-08-12T02:32:01.199Z,0
2016-08-12T02:32:25.299Z,0
2016-08-12T02:32:49.507Z,0
2016-08-12T02:33:13.604Z,0
2016-08-12T02:33:37.738Z,0
2016-08-12T02:34:01.840Z,0
2016-08-12T02:34:25.948Z,0
2016-08-12T02:34:50.073Z,0
2016-08-12T02:35:14.196Z,0
2016-08-12T02:35:38.300Z,0
2016-08-12T02:36:02.437Z,0
2016-08-12T02:36:26.562Z,0
2016-08-12T02:36:50.665Z,0
2016-08-12T02:37:14.777Z,0
2016-08-12T02:37:38.924Z,0
2016-08-12T02:38:03.045Z,0
2016-08-12T02:38:27.181Z,0
2016-08-12T02:38:51.289Z,0
2016-08-12T02:39:15.408Z,0
2016-08-12T02:39:39.514Z,0
2016-08-12T02:40:03.645Z,0
2016-08-12T02:40:27.732Z,0
2016-08-12T02:40:51.845Z,0
2016-08-12T02:41:15.988Z,0
2016-08-12T02:41:40.094Z,0
2016-08-12T02:42:04.212Z,0
2016-08-12T02:42:28.313Z,0
2016-08-12T02:42:52.454Z,0
2016-08-12T02:43:16.579Z,0
2016-08-12T02:43:40.722Z,0
2016-08-12T02:44:04.833Z,0
2016-08-12T02:44:28.943Z,0
2016-08-12T02:44:53.070Z,0
2016-08-12T02:45:17.192Z,0
2016-08-12T02:45:41.340Z,0
2016-08-12T02:46:05.442Z,0
2016-08-12T02:46:29.547Z,0
2016-08-12T02:46:53.696Z,0
2016-08-12T02:47:17.794Z,0
2016-08-12T02:47:41.912Z,0
2016-08-12T02:48:06.047Z,0
2016-08-12T02:48:30.182Z,0
2016-08-12T02:48:54.294Z,0
2016-08-12T02:49:18.403Z,0
2016-08-12T02:49:42.525Z,0
2016-08-12T02:50:06.624Z,0
2016-08-12T02:50:30.736Z,0
2016-08-12T02:50:54.832Z,0
2016-08-12T02:51:18.943Z,0
2016-08-12T02:51:43.160Z,0
2016-08-12T02:52:07.284Z,0
2016-08-12T02:52:32.226Z,0
2016-08-12T02:52:56.337Z,0
2016-08-12T02:53:20.452Z,0
2016-08-12T02:53:44.550Z,0
2016-08-12T02:54:08.674Z,0
2016-08-12T02:54:32.765Z,0
2016-08-12T02:54:56.891Z,0
2016-08-12T02:55:21.010Z,0
2016-08-12T02:55:45.131Z,0
2016-08-12T02:56:09.237Z,0
2016-08-12T02:56:33.349Z,0
2016-08-12T02:56:57.464Z,0
2016-08-12T02:57:21.589Z,0
2016-08-12T02:57:45.760Z,0
2016-08-12T02:58:09.890Z,0
2016-08-12T02:58:34.000Z,0
2016-08-12T02:58:58.133Z,0
2016-08-12T02:59:22.237Z,0
2016-08-12T02:59:46.379Z,0
2016-08-12T03:00:10.494Z,0
2016-08-12T03:00:34.599Z,0
2016-08-12T03:00:58.725Z,0
2016-08-12T03:01:22.852Z,0
2016-08-12T03:01:46.969Z,0
2016-08-12T03:02:11.114Z,0
2016-08-12T03:02:35.243Z,0
2016-08-12T03:02:59.367Z,0
2016-08-12T03:03:23.524Z,0
2016-08-12T03:03:47.641Z,0
2016-08-12T03:04:11.771Z,0
2016-08-12T03:04:35.941Z,0
2016-08-12T03:05:00.104Z,0
2016-08-12T03:05:24.205Z,0
2016-08-12T03:05:48.388Z,0
2016-08-12T03:06:12.543Z,0
2016-08-12T03:06:36.667Z,0
2016-08-12T03:07:00.764Z,0
2016-08-12T03:07:24.894Z,0
2016-08-12T03:07:49.042Z,4
2016-08-12T03:08:13.169Z,4
2016-08-12T03:08:37.315Z,4
2016-08-12T03:09:01.452Z,4
2016-08-12T03:09:25.598Z,4
2016-08-12T03:09:49.686Z,0
2016-08-12T03:10:13.786Z,0
2016-08-12T03:10:37.882Z,0
2016-08-12T03:11:01.997Z,0
2016-08-12T03:11:26.105Z,4
2016-08-12T03:11:50.234Z,4
2016-08-12T03:12:14.332Z,4
2016-08-12T03:12:38.455Z,4
2016-08-12T03:13:02.575Z,4
2016-08-12T03:13:26.679Z,0
2016-08-12T03:13:50.785Z,4
2016-08-12T03:14:14.892Z,4
2016-08-12T03:14:39.028Z,4
2016-08-12T03:15:03.153Z,4
2016-08-12T03:15:27.288Z,4
2016-08-12T03:15:51.419Z,4
2016-08-12T03:16:15.518Z,8
2016-08-12T03:16:39.626Z,4
2016-08-12T03:17:03.763Z,4
2016-08-12T03:17:27.867Z,8
2016-08-12T03:17:51.966Z,4
2016-08-12T03:18:16.113Z,8
2016-08-12T03:18:40.287Z,8
2016-08-12T03:19:04.447Z,8
2016-08-12T03:19:28.566Z,8
2016-08-12T03:19:52.725Z,8
2016-08-12T03:20:16.833Z,8
2016-08-12T03:20:40.928Z,8
2016-08-12T03:21:05.083Z,12
2016-08-12T03:21:29.199Z,8
2016-08-12T03:21:53.316Z,12
2016-08-12T03:22:17.436Z,12
2016-08-12T03:22:41.589Z,12
2016-08-12T03:23:05.740Z,12
2016-08-12T03:23:29.911Z,12
2016-08-12T03:23:54.091Z,12
2016-08-12T03:24:18.259Z,16
2016-08-12T03:24:42.384Z,16
2016-08-12T03:25:06.541Z,16
2016-08-12T03:25:30.703Z,16
2016-08-12T03:25:54.882Z,20
2016-08-12T03:26:19.079Z,20
2016-08-12T03:26:43.195Z,20
2016-08-12T03:27:07.309Z,20
2016-08-12T03:27:31.438Z,20
2016-08-12T03:27:55.565Z,24
2016-08-12T03:28:19.707Z,24
2016-08-12T03:28:43.814Z,24
2016-08-12T03:29:07.950Z,28
2016-08-12T03:29:32.073Z,28
2016-08-12T03:29:56.216Z,32
2016-08-12T03:30:20.354Z,32
2016-08-12T03:30:44.479Z,32
2016-08-12T03:31:08.611Z,36
2016-08-12T03:31:32.735Z,36
2016-08-12T03:31:56.881Z,40
2016-08-12T03:32:20.992Z,44
2016-08-12T03:32:45.120Z,44
2016-08-12T03:33:09.243Z,48
2016-08-12T03:33:33.385Z,52
2016-08-12T03:33:57.565Z,56
2016-08-12T03:34:21.691Z,56
2016-08-12T03:34:45.821Z,60
2016-08-12T03:35:09.930Z,64
2016-08-12T03:35:34.047Z,64
2016-08-12T03:35:58.155Z,68
2016-08-12T03:36:22.322Z,72
2016-08-12T03:36:46.476Z,76
2016-08-12T03:37:10.615Z,80
2016-08-12T03:37:34.714Z,88
2016-08-12T03:37:58.867Z,92
2016-08-12T03:38:23.001Z,100
2016-08-12T03:38:47.113Z,100
2016-08-12T03:39:11.206Z,104
2016-08-12T03:39:35.375Z,108
2016-08-12T03:39:59.513Z,116
2016-08-12T03:40:23.643Z,116
2016-08-12T03:40:47.738Z,120
2016-08-12T03:41:11.993Z,124
2016-08-12T03:41:36.137Z,128
2016-08-12T03:42:00.259Z,128
2016-08-12T03:42:24.631Z,136
2016-08-12T03:42:48.745Z,136
2016-08-12T03:43:12.954Z,140
2016-08-12T03:43:37.107Z,140
2016-08-12T03:44:01.227Z,144
2016-08-12T03:44:25.352Z,148
2016-08-12T03:44:49.457Z,148
2016-08-12T03:45:13.585Z,152
2016-08-12T03:45:37.740Z,152
2016-08-12T03:46:01.891Z,156
2016-08-12T03:46:26.024Z,156
2016-08-12T03:46:50.190Z,160
2016-08-12T03:47:14.335Z,156
2016-08-12T03:47:38.476Z,156
2016-08-12T03:48:02.590Z,152
2016-08-12T03:48:26.695Z,156
2016-08-12T03:48:50.826Z,156
2016-08-12T03:49:14.944Z,160
2016-08-12T03:49:39.052Z,160
2016-08-12T03:50:03.529Z,164
2016-08-12T03:50:28.094Z,172
2016-08-12T03:50:53.820Z,180
2016-08-12T03:51:18.391Z,184
2016-08-12T03:51:42.521Z,188
2016-08-12T03:52:06.648Z,192
2016-08-12T03:52:30.794Z,192
2016-08-12T03:52:54.907Z,196
2016-08-12T03:53:19.061Z,204
2016-08-12T03:53:43.231Z,208
2016-08-12T03:54:07.351Z,224
2016-08-12T03:54:31.472Z,232
2016-08-12T03:54:55.595Z,252
2016-08-12T03:55:19.702Z,272
2016-08-12T03:55:43.863Z,288
2016-08-12T03:56:07.971Z,304
2016-08-12T03:56:32.130Z,316
2016-08-12T03:56:56.266Z,328
2016-08-12T03:57:20.390Z,336
2016-08-12T03:57:44.580Z,344
2016-08-12T03:58:08.716Z,352
2016-08-12T03:58:32.833Z,352
2016-08-12T03:58:56.966Z,360
2016-08-12T03:59:21.096Z,360
2016-08-12T03:59:45.256Z,368
2016-08-12T04:00:09.438Z,376
2016-08-12T04:00:33.615Z,380
2016-08-12T04:00:57.802Z,388
2016-08-12T04:01:21.932Z,392
2016-08-12T04:01:46.083Z,396
2016-08-12T04:02:10.228Z,404
2016-08-12T04:02:34.343Z,408
2016-08-12T04:02:58.457Z,408
2016-08-12T04:03:22.587Z,412
2016-08-12T04:03:46.742Z,416
2016-08-12T04:04:10.859Z,424
2016-08-12T04:04:34.958Z,428
2016-08-12T04:04:59.082Z,424
2016-08-12T04:05:23.192Z,432
2016-08-12T04:05:47.298Z,436
2016-08-12T04:06:11.503Z,444
2016-08-12T04:06:35.642Z,444
2016-08-12T04:06:59.779Z,448
2016-08-12T04:07:23.917Z,448
2016-08-12T04:07:48.069Z,444
2016-08-12T04:08:11.952Z,440
2016-08-12T04:08:36.066Z,436
2016-08-12T04:09:00.198Z,432
2016-08-12T04:09:24.324Z,432
2016-08-12T04:09:48.448Z,428
2016-08-12T04:10:12.617Z,428
2016-08-12T04:10:36.751Z,432
2016-08-12T04:11:00.856Z,440
2016-08-12T04:11:24.993Z,448
2016-08-12T04:11:49.119Z,448
2016-08-12T04:12:13.240Z,460
2016-08-12T04:12:37.363Z,464
2016-08-12T04:13:01.482Z,460
2016-08-12T04:13:25.627Z,464
2016-08-12T04:13:49.739Z,468
2016-08-12T04:14:13.852Z,476
2016-08-12T04:14:37.978Z,484
2016-08-12T04:15:02.083Z,496
2016-08-12T04:15:26.206Z,512
2016-08-12T04:15:50.319Z,536
2016-08-12T04:16:14.444Z,560
2016-08-12T04:16:38.582Z,588
2016-08-12T04:17:02.759Z,608
2016-08-12T04:17:26.891Z,628
2016-08-12T04:17:50.998Z,644
2016-08-12T04:18:15.147Z,668
2016-08-12T04:18:39.252Z,688
2016-08-12T04:19:03.398Z,712
2016-08-12T04:19:27.541Z,736
2016-08-12T04:19:51.661Z,764
2016-08-12T04:20:15.796Z,796
2016-08-12T04:20:39.906Z,824
2016-08-12T04:21:04.006Z,848
2016-08-12T04:21:28.121Z,860
2016-08-12T04:21:52.233Z,868
2016-08-12T04:22:16.365Z,872
2016-08-12T04:22:40.460Z,868
2016-08-12T04:23:04.579Z,864
2016-08-12T04:23:28.679Z,872
2016-08-12T04:23:52.809Z,876
2016-08-12T04:24:16.932Z,880
2016-08-12T04:24:41.094Z,884
2016-08-12T04:25:05.202Z,892
2016-08-12T04:25:29.363Z,904
2016-08-12T04:25:53.493Z,904
2016-08-12T04:26:17.613Z,908
2016-08-12T04:26:41.746Z,904
2016-08-12T04:27:05.851Z,900
2016-08-12T04:27:29.992Z,908
2016-08-12T04:27:54.184Z,928
2016-08-12T04:28:18.326Z,960
2016-08-12T04:28:42.459Z,1000
2016-08-12T04:29:06.638Z,1052
2016-08-12T04:29:30.744Z,1104
2016-08-12T04:29:54.855Z,1152
2016-08-12T04:30:18.995Z,1208
2016-08-12T04:30:43.135Z,1248
2016-08-12T04:31:07.322Z,1304
2016-08-12T04:31:31.487Z,1344
2016-08-12T04:31:55.614Z,1384
2016-08-12T04:32:20.352Z,1428
2016-08-12T04:32:44.464Z,1472
2016-08-12T04:33:08.611Z,1516
2016-08-12T04:33:32.765Z,1572
2016-08-12T04:33:56.921Z,1648
2016-08-12T04:34:21.131Z,1716
2016-08-12T04:34:45.260Z,1780
2016-08-12T04:35:09.423Z,1852
2016-08-12T04:35:33.546Z,1904
2016-08-12T04:35:57.680Z,1956
2016-08-12T04:36:21.810Z,2004
2016-08-12T04:36:45.942Z,2012
2016-08-12T04:37:10.068Z,1960
2016-08-12T04:37:34.229Z,1912
2016-08-12T04:37:58.410Z,1896
2016-08-12T04:38:22.574Z,1912
2016-08-12T04:38:46.719Z,1928
2016-08-12T04:39:10.848Z,1932
2016-08-12T04:39:35.042Z,1956
2016-08-12T04:39:59.170Z,1964
2016-08-12T04:40:23.287Z,1988
2016-08-12T04:40:47.429Z,2012
2016-08-12T04:41:11.562Z,2064
2016-08-12T04:41:35.692Z,2064
2016-08-12T04:41:59.851Z,2008
2016-08-12T04:42:23.992Z,2024
2016-08-12T04:42:48.099Z,2056
2016-08-12T04:43:12.266Z,2072
2016-08-12T04:43:36.403Z,2148
2016-08-12T04:44:00.578Z,2228
2016-08-12T04:44:24.766Z,2232
2016-08-12T04:44:48.898Z,2204
2016-08-12T04:45:13.026Z,2160
2016-08-12T04:45:37.147Z,2104
2016-08-12T04:46:01.280Z,2048
2016-08-12T04:46:25.464Z,2004
2016-08-12T04:46:49.576Z,1976
2016-08-12T04:47:13.750Z,1972
2016-08-12T04:47:37.883Z,1992
2016-08-12T04:48:01.997Z,2032
2016-08-12T04:48:26.108Z,2044
2016-08-12T04:48:50.253Z,2036
2016-08-12T04:49:14.412Z,2016
2016-08-12T04:49:38.617Z,2004
2016-08-12T04:50:02.804Z,2004
2016-08-12T04:50:26.921Z,2016
2016-08-12T04:50:51.096Z,2036
2016-08-12T04:51:15.230Z,2052
2016-08-12T04:51:39.288Z,2060
2016-08-12T04:52:03.411Z,2060
2016-08-12T04:52:27.517Z,2052
2016-08-12T04:52:51.622Z,2024
2016-08-12T04:53:15.774Z,2012
2016-08-12T04:53:39.946Z,2000
2016-08-12T04:54:04.077Z,1984
2016-08-12T04:54:28.258Z,1960
2016-08-12T04:54:52.406Z,1928
2016-08-12T04:55:16.538Z,1888
2016-08-12T04:55:40.686Z,1868
2016-08-12T04:56:04.820Z,1852
2016-08-12T04:56:29.007Z,1840
2016-08-12T04:56:53.183Z,1856
2016-08-12T04:57:17.312Z,1900
2016-08-12T04:57:41.481Z,1976
2016-08-12T04:58:05.613Z,2092
2016-08-12T04:58:29.772Z,2184
2016-08-12T04:58:53.925Z,2240
2016-08-12T04:59:18.120Z,2288
2016-08-12T04:59:42.323Z,2336
2016-08-12T05:00:06.484Z,2384
2016-08-12T05:00:30.665Z,2448
2016-08-12T05:00:54.797Z,2476
2016-08-12T05:01:18.925Z,2464
2016-08-12T05:01:43.062Z,2476
2016-08-12T05:02:07.259Z,2484
2016-08-12T05:02:31.384Z,2460
2016-08-12T05:02:55.529Z,2416
2016-08-12T05:03:19.679Z,2368
2016-08-12T05:03:43.784Z,2304
2016-08-12T05:04:08.831Z,2204
2016-08-12T05:04:32.939Z,2092
2016-08-12T05:04:57.119Z,1948
2016-08-12T05:05:21.313Z,1812
2016-08-12T05:05:45.486Z,1700
2016-08-12T05:06:09.783Z,1604
2016-08-12T05:06:33.890Z,1532
2016-08-12T05:06:58.063Z,1504
2016-08-12T05:07:22.213Z,1492
2016-08-12T05:07:46.345Z,1500
2016-08-12T05:08:10.485Z,1516
2016-08-12T05:08:34.593Z,1500
2016-08-12T05:08:58.728Z,1488
2016-08-12T05:09:22.844Z,1492
2016-08-12T05:09:46.985Z,1524
2016-08-12T05:10:11.162Z,1548
2016-08-12T05:10:35.303Z,1560
2016-08-12T05:10:59.432Z,1596
2016-08-12T05:11:23.584Z,1616
2016-08-12T05:11:47.740Z,1616
2016-08-12T05:12:11.831Z,1636
2016-08-12T05:12:35.966Z,1640
2016-08-12T05:13:00.180Z,1648
2016-08-12T05:13:24.317Z,1764
2016-08-12T05:13:48.425Z,1908
2016-08-12T05:14:12.594Z,1976
2016-08-12T05:14:36.822Z,2028
2016-08-12T05:15:00.917Z,2072
2016-08-12T05:15:25.097Z,2124
2016-08-12T05:15:49.218Z,2136
2016-08-12T05:16:13.376Z,2284
2016-08-12T05:16:37.506Z,2444
2016-08-12T05:17:01.642Z,2520
2016-08-12T05:17:25.779Z,2552
2016-08-12T05:17:49.902Z,2608
2016-08-12T05:18:14.056Z,2628
2016-08-12T05:18:38.198Z,2608
2016-08-12T05:19:02.307Z,2532
2016-08-12T05:19:26.514Z,2488
2016-08-12T05:19:50.632Z,2496
2016-08-12T05:20:14.763Z,2524
2016-08-12T05:20:38.927Z,2588
2016-08-12T05:21:03.051Z,2728
2016-08-12T05:21:27.202Z,2840
2016-08-12T05:21:51.332Z,2880
2016-08-12T05:22:15.468Z,2924
2016-08-12T05:22:39.602Z,2968
2016-08-12T05:23:03.771Z,2972
2016-08-12T05:23:27.930Z,2944
2016-08-12T05:23:52.087Z,2920
2016-08-12T05:24:16.225Z,2920
2016-08-12T05:24:40.357Z,2920
2016-08-12T05:25:04.513Z,2860
2016-08-12T05:25:28.723Z,2812
2016-08-12T05:25:52.885Z,2744
2016-08-12T05:26:17.076Z,2656
2016-08-12T05:26:41.266Z,2604
2016-08-12T05:27:05.425Z,2620
2016-08-12T05:27:29.538Z,2680
2016-08-12T05:27:53.663Z,2760
2016-08-12T05:28:17.835Z,2876
2016-08-12T05:28:42.042Z,3020
2016-08-12T05:29:06.290Z,3140
2016-08-12T05:29:30.407Z,3296
2016-08-12T05:29:54.574Z,3468
2016-08-12T05:30:18.680Z,3628
2016-08-12T05:30:42.868Z,3836
2016-08-12T05:31:07.049Z,4092
2016-08-12T05:31:31.205Z,4352
2016-08-12T05:31:55.326Z,4552
2016-08-12T05:32:19.504Z,4732
2016-08-12T05:32:43.679Z,4872
2016-08-12T05:33:07.815Z,4984
2016-08-12T05:33:31.950Z,5036
2016-08-12T05:33:56.084Z,5064
2016-08-12T05:34:20.222Z,5084
2016-08-12T05:34:44.341Z,5084
2016-08-12T05:35:08.466Z,5048
2016-08-12T05:35:32.631Z,5004
2016-08-12T05:35:56.791Z,4980
2016-08-12T05:36:20.906Z,4908
2016-08-12T05:36:45.038Z,4820
2016-08-12T05:37:09.173Z,4736
2016-08-12T05:37:33.329Z,4696
2016-08-12T05:37:57.573Z,4728
2016-08-12T05:38:21.735Z,4812
2016-08-12T05:38:45.887Z,4956
2016-08-12T05:39:10.090Z,5080
2016-08-12T05:39:34.265Z,5216
2016-08-12T05:39:58.417Z,5588
2016-08-12T05:40:22.553Z,6084
2016-08-12T05:40:46.654Z,6548
2016-08-12T05:41:10.822Z,6928
2016-08-12T05:41:34.967Z,7200
2016-08-12T05:41:59.119Z,7360
2016-08-12T05:42:23.269Z,7412
2016-08-12T05:42:47.386Z,7396
2016-08-12T05:43:11.505Z,7296
2016-08-12T05:43:35.653Z,7128
2016-08-12T05:43:59.828Z,6940
2016-08-12T05:44:23.963Z,6732